Time;durP1;ratioP1;P1;durP2;ratioP2;P2;SDS_P1;SDS_P2;PMS_P1;PMS_P2;Temp;Humidity;BMP_temperature;BMP_pressure;BME280_temperature;BME280_humidity;BME280_pressure;Samples;Min_cycle;Max_cycle;Signal;HPM_P1;HPM_P2
2022/05/13 00:01:54;;;;;;;0.40;0.40;;;;;;;29.60;32.12;96896.66;5082357;28;20028;-31
2022/05/13 00:04:20;;;;;;;0.40;0.40;;;;;;;29.60;32.30;96893.19;5085117;28;20024;-31
2022/05/13 00:06:45;;;;;;;0.32;0.20;;;;;;;29.60;31.89;96890.56;5084216;28;20050;-33
2022/05/13 00:09:11;;;;;;;0.47;0.28;;;;;;;29.59;32.04;96894.13;5080436;28;20024;-33
2022/05/13 00:11:36;;;;;;;0.30;0.30;;;;;;;29.58;32.03;96895.94;5082459;28;20028;-30
2022/05/13 00:14:02;;;;;;;0.38;0.38;;;;;;;29.59;32.09;96904.69;5080401;28;20061;-32
2022/05/13 00:16:27;;;;;;;0.38;0.38;;;;;;;29.59;31.94;96899.41;5082594;28;20085;-37
2022/05/13 00:18:53;;;;;;;0.75;0.30;;;;;;;29.59;32.14;96905.53;5082978;28;20036;-30
2022/05/13 00:21:18;;;;;;;1.08;0.50;;;;;;;29.59;31.92;96907.31;5083167;28;20662;-31
2022/05/13 00:23:44;;;;;;;0.40;0.40;;;;;;;29.59;32.06;96909.97;5081982;28;20028;-33
2022/05/13 00:26:09;;;;;;;0.40;0.40;;;;;;;29.58;32.13;96897.72;5081667;28;20035;-32
2022/05/13 00:28:34;;;;;;;0.40;0.40;;;;;;;29.58;31.95;96893.31;5082351;28;20036;-30
2022/05/13 00:31:04;;;;;;;0.47;0.30;;;;;;;29.58;32.04;96895.94;5081489;28;20028;-34
2022/05/13 00:33:30;;;;;;;0.40;0.40;;;;;;;29.58;31.91;96895.09;5079209;28;20043;-30
2022/05/13 00:35:55;;;;;;;0.30;0.30;;;;;;;29.58;32.21;96895.09;5082713;28;20133;-29
2022/05/13 00:38:21;;;;;;;0.45;0.40;;;;;;;29.57;31.91;96890.75;5080508;28;20032;-30
2022/05/13 00:40:46;;;;;;;0.30;0.30;;;;;;;29.58;32.46;96887.16;5079134;28;20040;-31
2022/05/13 00:43:12;;;;;;;0.55;0.30;;;;;;;29.58;32.21;96884.53;5081383;28;20016;-32
2022/05/13 00:45:38;;;;;;;0.40;0.40;;;;;;;29.57;32.15;96881.06;5081526;28;20704;-31
2022/05/13 00:48:03;;;;;;;0.40;0.40;;;;;;;29.58;31.83;96876.59;5078721;28;20107;-33
2022/05/13 00:50:31;;;;;;;0.40;0.40;;;;;;;29.58;32.09;96873.97;5080428;28;20039;-30
2022/05/13 00:52:56;;;;;;;0.30;0.30;;;;;;;29.58;31.96;96876.59;5080384;28;20588;-30
2022/05/13 00:55:28;;;;;;;0.40;0.40;;;;;;;29.58;31.86;96868.66;5083084;28;20040;-32
2022/05/13 00:57:53;;;;;;;0.50;0.30;;;;;;;29.58;32.08;96871.31;5082422;28;21072;-31
2022/05/13 01:00:19;;;;;;;0.40;0.40;;;;;;;29.57;32.17;96870.50;5081859;28;20044;-30
2022/05/13 01:02:45;;;;;;;0.60;0.50;;;;;;;29.57;32.00;96869.63;5083430;28;20019;-31
2022/05/13 01:05:12;;;;;;;0.52;0.40;;;;;;;29.57;32.29;96864.34;5083164;28;20444;-32
2022/05/13 01:07:37;;;;;;;0.30;0.30;;;;;;;29.58;32.22;96860.75;5090684;28;20031;-30
2022/05/13 01:10:04;;;;;;;0.40;0.40;;;;;;;29.58;31.89;96860.75;5082230;28;20035;-32
2022/05/13 01:12:35;;;;;;;0.45;0.40;;;;;;;29.56;32.02;96862.66;5084786;28;20549;-31
2022/05/13 01:15:07;;;;;;;0.30;0.30;;;;;;;29.57;31.99;96848.50;5071319;28;20052;-32
2022/05/13 01:20:24;;;;;;;0.95;0.43;;;;;;;29.56;32.07;96842.38;5082367;28;20042;-31
2022/05/13 01:22:55;;;;;;;0.90;0.30;;;;;;;29.56;32.12;96842.38;5083787;28;20718;-32
2022/05/13 01:25:24;;;;;;;0.50;0.50;;;;;;;29.56;31.77;96845.00;5083768;28;20428;-29
2022/05/13 01:27:50;;;;;;;1.15;0.40;;;;;;;29.57;32.01;96851.16;5081354;28;20032;-32
2022/05/13 01:30:18;;;;;;;1.02;0.50;;;;;;;29.56;32.01;96857.38;5079509;28;20028;-32
2022/05/13 01:32:44;;;;;;;0.50;0.43;;;;;;;29.55;31.93;96851.25;5082476;28;20057;-34
2022/05/13 01:35:09;;;;;;;0.65;0.32;;;;;;;29.57;31.98;96843.22;5080474;28;20032;-31
2022/05/13 01:37:35;;;;;;;0.45;0.45;;;;;;;29.55;31.91;96845.97;5079051;28;20028;-31
2022/05/13 01:40:01;;;;;;;0.38;0.38;;;;;;;29.55;32.08;96851.25;5080861;28;20165;-30
2022/05/13 01:42:28;;;;;;;0.47;0.40;;;;;;;29.55;32.00;96868.88;5081094;28;20050;-32
2022/05/13 01:44:53;;;;;;;0.38;0.38;;;;;;;29.55;32.09;96876.78;5082790;28;20067;-31
2022/05/13 01:47:19;;;;;;;0.43;0.30;;;;;;;29.55;32.03;96863.59;5082905;28;20036;-30
2022/05/13 01:49:44;;;;;;;0.30;0.30;;;;;;;29.56;32.10;96878.50;5083239;28;20020;-31
2022/05/13 01:52:09;;;;;;;0.32;0.32;;;;;;;29.55;32.06;96887.34;5080521;28;20032;-31
2022/05/13 01:54:35;;;;;;;0.32;0.32;;;;;;;29.54;32.13;96893.59;5080282;28;20891;-30
2022/05/13 01:57:00;;;;;;;0.40;0.40;;;;;;;29.54;32.04;96885.66;5083787;28;20057;-31
2022/05/13 01:59:26;;;;;;;0.30;0.30;;;;;;;29.55;32.03;96887.34;5084058;28;20032;-31
2022/05/13 02:01:51;;;;;;;0.20;0.20;;;;;;;29.54;31.91;96896.22;5083880;28;20527;-31
2022/05/13 02:04:17;;;;;;;0.68;0.50;;;;;;;29.53;32.05;96895.41;5085066;28;20019;-30
2022/05/13 02:06:42;;;;;;;0.30;0.30;;;;;;;29.55;32.14;96897.91;5087547;28;20097;-33
2022/05/13 02:09:08;;;;;;;0.28;0.28;;;;;;;29.54;31.84;96885.66;5083745;28;20035;-29
2022/05/13 02:11:36;;;;;;;0.40;0.40;;;;;;;29.54;32.08;96896.22;5086632;28;20562;-31
2022/05/13 02:14:01;;;;;;;0.82;0.38;;;;;;;29.53;32.22;96890.13;5085431;28;20653;-30
2022/05/13 02:16:27;;;;;;;0.57;0.52;;;;;;;29.54;32.21;96890.94;5082885;28;20035;-31
2022/05/13 02:18:52;;;;;;;0.70;0.40;;;;;;;29.54;32.10;96888.31;5084465;27;20044;-31
2022/05/13 02:21:18;;;;;;;0.32;0.30;;;;;;;29.54;32.00;96880.38;5086334;28;20031;-31
2022/05/13 02:23:44;;;;;;;0.38;0.38;;;;;;;29.53;31.90;96876.94;5086312;28;20031;-32
2022/05/13 02:26:10;;;;;;;0.40;0.30;;;;;;;29.54;31.96;96880.38;5084726;28;20028;-31
2022/05/13 02:28:36;;;;;;;0.40;0.40;;;;;;;29.54;32.00;96880.38;5066082;28;20026;-32
2022/05/13 02:31:01;;;;;;;0.52;0.40;;;;;;;29.53;32.03;96879.56;5084824;28;20053;-30
2022/05/13 02:33:27;;;;;;;0.82;0.50;;;;;;;29.53;32.07;96878.72;5085873;28;20028;-30
2022/05/13 02:35:53;;;;;;;0.50;0.40;;;;;;;29.53;31.82;96873.44;5086334;28;20074;-31
2022/05/13 02:38:18;;;;;;;0.40;0.40;;;;;;;29.53;32.05;96873.44;5084524;28;20035;-31
2022/05/13 02:43:28;;;;;;;0.22;0.22;;;;;;;29.54;31.90;96869.84;5082069;28;20454;-31
2022/05/13 02:45:53;;;;;;;0.28;0.28;;;;;;;29.53;31.79;96865.50;5085032;28;20031;-31
2022/05/13 02:48:18;;;;;;;0.30;0.30;;;;;;;29.53;31.99;96873.44;5085648;28;20080;-33
2022/05/13 02:50:45;;;;;;;0.30;0.30;;;;;;;29.52;32.12;96871.75;5082249;28;20035;-32
2022/05/13 02:53:10;;;;;;;0.30;0.30;;;;;;;29.52;32.16;96866.47;5084237;28;20084;-32
2022/05/13 02:55:36;;;;;;;0.22;0.20;;;;;;;29.51;31.67;96872.63;5080686;28;20031;-32
2022/05/13 02:58:01;;;;;;;0.40;0.40;;;;;;;29.51;31.89;96864.72;5084649;28;20036;-32
2022/05/13 03:00:27;;;;;;;0.40;0.40;;;;;;;29.51;31.96;96870.00;5086612;28;20028;-31
2022/05/13 03:02:52;;;;;;;0.30;0.28;;;;;;;29.50;31.82;96874.44;5083906;28;20036;-31
2022/05/13 03:05:18;;;;;;;0.30;0.30;;;;;;;29.51;31.87;96870.00;5085202;28;20027;-31
2022/05/13 03:07:43;;;;;;;0.40;0.40;;;;;;;29.51;31.82;96870.00;5082240;28;20031;-31
2022/05/13 03:10:08;;;;;;;0.32;0.32;;;;;;;29.51;31.89;96870.88;5083938;28;20020;-29
2022/05/13 03:12:35;;;;;;;0.47;0.40;;;;;;;29.51;31.96;96870.00;5083731;28;20051;-31
2022/05/13 03:15:01;;;;;;;1.10;0.50;;;;;;;29.52;32.02;96877.03;5084385;28;20028;-33
2022/05/13 03:17:26;;;;;;;0.30;0.30;;;;;;;29.51;31.85;96870.88;5083941;28;20024;-31
2022/05/13 03:19:52;;;;;;;0.30;0.30;;;;;;;29.51;32.06;96864.72;5083888;28;20042;-30
2022/05/13 03:22:17;;;;;;;0.30;0.30;;;;;;;29.50;32.20;96869.16;5081277;28;20028;-32
2022/05/13 03:24:42;;;;;;;0.30;0.30;;;;;;;29.50;32.14;96866.53;5083568;27;20051;-31
2022/05/13 03:27:08;;;;;;;0.45;0.35;;;;;;;29.50;31.68;96868.31;5084977;28;20046;-36
2022/05/13 03:29:35;;;;;;;0.30;0.30;;;;;;;29.50;32.03;96870.94;5084255;28;20028;-33
2022/05/13 03:32:03;;;;;;;0.20;0.20;;;;;;;29.49;32.13;96862.22;5085311;28;20036;-30
2022/05/13 03:34:29;;;;;;;0.45;0.45;;;;;;;29.50;31.83;96868.31;5082747;28;20031;-36
2022/05/13 03:36:54;;;;;;;0.30;0.30;;;;;;;29.49;32.00;96867.47;5081550;28;20035;-29
2022/05/13 03:39:20;;;;;;;0.40;0.40;;;;;;;29.50;31.97;96873.59;5079439;28;20122;-31
2022/05/13 03:41:45;;;;;;;0.30;0.30;;;;;;;29.50;31.84;96873.59;5085297;28;20065;-30
2022/05/13 03:44:10;;;;;;;0.25;0.25;;;;;;;29.49;32.08;96878.03;5084667;28;20038;-32
2022/05/13 03:46:36;;;;;;;0.65;0.38;;;;;;;29.49;31.55;96878.03;5083322;28;20090;-33
2022/05/13 03:49:02;;;;;;;0.32;0.30;;;;;;;29.50;32.01;96878.88;5080772;28;20311;-31
2022/05/13 03:51:28;;;;;;;0.40;0.30;;;;;;;29.48;32.14;96882.47;5079287;28;20762;-33
2022/05/13 03:53:53;;;;;;;0.30;0.30;;;;;;;29.48;32.02;96878.97;5084060;28;20039;-32
2022/05/13 03:56:19;;;;;;;0.20;0.20;;;;;;;29.48;31.88;96881.59;5086172;28;20032;-30
2022/05/13 03:58:44;;;;;;;0.73;0.30;;;;;;;29.48;31.76;96882.47;5083013;28;20038;-30
2022/05/13 04:01:10;;;;;;;0.30;0.30;;;;;;;29.47;32.06;96875.50;5083168;28;20020;-30
2022/05/13 04:03:35;;;;;;;0.60;0.30;;;;;;;29.47;32.08;96875.50;5083284;28;20683;-30
2022/05/13 04:08:57;;;;;;;0.30;0.30;;;;;;;29.48;31.75;96873.69;5080633;28;20540;-30
2022/05/13 04:11:29;;;;;;;0.30;0.30;;;;;;;29.47;31.81;96870.22;5081506;28;20027;-30
2022/05/13 04:16:38;;;;;;;0.30;0.30;;;;;;;29.46;31.82;96857.97;5083801;28;20034;-31
2022/05/13 04:19:04;;;;;;;0.40;0.40;;;;;;;29.47;32.04;96859.66;5082114;28;20031;-30
2022/05/13 04:21:32;;;;;;;0.40;0.40;;;;;;;29.45;31.92;96869.47;5082853;27;20040;-35
2022/05/13 04:24:00;;;;;;;0.20;0.20;;;;;;;29.45;31.96;96871.28;5080046;28;20058;-31
2022/05/13 04:26:25;;;;;;;1.75;0.38;;;;;;;29.46;31.87;96870.31;5078830;28;20081;-31
2022/05/13 04:28:51;;;;;;;0.20;0.20;;;;;;;29.45;32.13;96877.38;5080791;28;20043;-31
2022/05/13 04:31:20;;;;;;;0.20;0.20;;;;;;;29.46;31.77;96872.97;5083274;28;20028;-31
2022/05/13 04:33:46;;;;;;;0.40;0.40;;;;;;;29.45;31.94;96882.66;5084348;28;20028;-30
2022/05/13 04:36:11;;;;;;;0.35;0.28;;;;;;;29.45;31.95;96874.75;5083214;28;20031;-32
2022/05/13 04:38:37;;;;;;;0.30;0.30;;;;;;;29.45;31.79;96874.75;5083971;28;20573;-29
2022/05/13 04:42:49;;;;;;;0.30;0.30;;;;;;;29.45;32.02;96887.94;5075498;28;20035;-30
2022/05/13 04:43:48;;;;;;;0.22;0.22;;;;;;;29.46;31.96;96881.75;5081749;28;20036;-29
2022/05/13 04:46:14;;;;;;;0.30;0.30;;;;;;;29.47;31.86;96877.28;5082778;28;20517;-32
2022/05/13 04:48:39;;;;;;;1.45;0.40;;;;;;;29.46;31.83;96884.38;5082190;28;20237;-31
2022/05/13 04:51:04;;;;;;;0.40;0.30;;;;;;;29.46;32.11;96884.38;5076165;28;20031;-30
2022/05/13 04:53:31;;;;;;;0.52;0.30;;;;;;;29.47;32.30;96890.50;5081338;28;20028;-31
2022/05/13 04:55:57;;;;;;;1.33;0.40;;;;;;;29.43;31.89;96892.50;5081277;28;20028;-30
2022/05/13 04:58:22;;;;;;;0.30;0.30;;;;;;;29.45;31.87;96890.59;5084386;28;20035;-33
2022/05/13 05:00:48;;;;;;;0.43;0.35;;;;;;;29.45;31.97;96892.41;5081113;28;20036;-30
2022/05/13 05:03:15;;;;;;;0.20;0.20;;;;;;;29.45;31.85;96902.97;5082998;28;20032;-31
2022/05/13 05:05:42;;;;;;;0.45;0.43;;;;;;;29.45;31.99;96898.50;5082525;28;20031;-31
2022/05/13 05:08:08;;;;;;;0.30;0.30;;;;;;;29.44;31.87;96907.38;5080843;28;20031;-32
2022/05/13 05:10:33;;;;;;;0.30;0.30;;;;;;;29.45;31.88;96903.78;5080629;28;20043;-32
2022/05/13 05:12:59;;;;;;;0.30;0.30;;;;;;;29.45;32.32;96909.06;5081129;28;20027;-33
2022/05/13 05:15:24;;;;;;;0.35;0.30;;;;;;;29.44;32.10;96912.66;5080136;28;20822;-31
2022/05/13 05:17:50;;;;;;;1.20;0.30;;;;;;;29.44;32.06;96917.94;5080737;28;20096;-29
2022/05/13 05:20:16;;;;;;;0.30;0.30;;;;;;;29.44;32.04;96917.94;5081397;28;20058;-43
2022/05/13 05:22:44;;;;;;;0.55;0.30;;;;;;;29.44;32.02;96910.03;5084077;28;20016;-33
2022/05/13 05:25:09;;;;;;;0.20;0.20;;;;;;;29.44;32.08;96915.31;5082486;28;20036;-31
2022/05/13 05:27:35;;;;;;;0.20;0.20;;;;;;;29.44;32.08;96904.75;5081094;28;20031;-29
2022/05/13 05:30:03;;;;;;;0.40;0.30;;;;;;;29.45;31.89;96902.97;5082440;28;20150;-33
2022/05/13 05:32:28;;;;;;;0.30;0.30;;;;;;;29.45;31.96;96906.44;5083281;28;20107;-37
2022/05/13 05:34:53;;;;;;;0.15;0.15;;;;;;;29.45;32.03;96905.59;5078987;28;20031;-35
2022/05/13 05:37:19;;;;;;;0.25;0.25;;;;;;;29.45;31.92;96914.34;5080181;28;20723;-30
2022/05/13 05:39:44;;;;;;;0.22;0.22;;;;;;;29.45;32.02;96913.53;5084403;28;20048;-29
2022/05/13 05:42:09;;;;;;;0.22;0.22;;;;;;;29.45;31.98;96918.81;5081201;28;20028;-28
2022/05/13 05:44:35;;;;;;;0.20;0.20;;;;;;;29.43;32.11;96916.25;5085880;28;20106;-32
2022/05/13 05:47:00;;;;;;;0.30;0.30;;;;;;;29.45;31.95;96924.09;5083057;28;20109;-33
2022/05/13 05:49:26;;;;;;;0.30;0.30;;;;;;;29.44;31.84;96923.22;5078536;28;20027;-29
2022/05/13 05:51:51;;;;;;;0.30;0.30;;;;;;;29.44;31.83;96920.59;5080540;28;20723;-32
2022/05/13 05:57:16;;;;;;;0.30;0.30;;;;;;;29.44;31.81;96928.50;5083105;28;20803;-30
2022/05/13 05:59:45;;;;;;;0.20;0.20;;;;;;;29.44;31.87;96925.00;5084428;28;21074;-29
2022/05/13 06:02:10;;;;;;;0.30;0.30;;;;;;;29.43;31.84;96926.81;5083166;28;20035;-31
2022/05/13 06:04:36;;;;;;;0.63;0.30;;;;;;;29.44;31.93;96932.91;5082215;28;20571;-31
2022/05/13 06:07:06;;;;;;;0.32;0.32;;;;;;;29.42;31.84;96930.41;5081455;28;20591;-32
2022/05/13 06:09:31;;;;;;;0.20;0.20;;;;;;;29.43;31.86;96932.09;5082358;28;20035;-32
2022/05/13 06:11:57;;;;;;;0.63;0.40;;;;;;;29.42;32.11;96930.41;5082646;28;20035;-30
2022/05/13 06:14:22;;;;;;;0.22;0.22;;;;;;;29.43;32.03;96929.44;5082444;28;20040;-31
2022/05/13 06:16:48;;;;;;;0.30;0.30;;;;;;;29.43;32.01;96929.44;5077587;28;20027;-31
2022/05/13 06:19:14;;;;;;;0.30;0.30;;;;;;;29.43;32.00;96926.81;5081412;28;20035;-31
2022/05/13 06:21:39;;;;;;;0.38;0.38;;;;;;;29.44;31.89;96935.56;5083154;28;20059;-32
2022/05/13 06:24:05;;;;;;;0.20;0.20;;;;;;;29.43;32.06;96937.38;5079879;28;20104;-33
2022/05/13 06:26:31;;;;;;;0.25;0.25;;;;;;;29.44;32.11;96932.91;5079474;28;20617;-32
2022/05/13 06:28:57;;;;;;;0.22;0.22;;;;;;;29.44;32.12;96944.34;5083329;28;20031;-31
2022/05/13 06:31:23;;;;;;;0.30;0.30;;;;;;;29.45;31.76;96945.19;5081672;28;20028;-33
2022/05/13 06:33:49;;;;;;;0.30;0.30;;;;;;;29.41;31.97;96949.81;5079102;28;20128;-32
2022/05/13 06:36:14;;;;;;;0.65;0.30;;;;;;;29.44;32.07;96954.91;5081290;28;20024;-31
2022/05/13 06:38:40;;;;;;;0.30;0.30;;;;;;;29.45;31.89;96956.59;5079766;28;20032;-31
2022/05/13 06:41:05;;;;;;;0.38;0.38;;;;;;;29.45;31.96;96951.31;5080114;28;20526;-31
2022/05/13 06:43:31;;;;;;;0.30;0.28;;;;;;;29.45;32.03;96953.94;5084964;28;20053;-32
2022/05/13 06:45:57;;;;;;;0.20;0.20;;;;;;;29.46;31.89;96949.53;5082531;28;20048;-32
2022/05/13 06:48:22;;;;;;;0.85;0.30;;;;;;;29.45;32.08;96951.31;5085069;28;20062;-31
2022/05/13 06:50:48;;;;;;;0.10;0.10;;;;;;;29.45;32.13;96951.31;5081127;28;20517;-32
2022/05/13 06:53:17;;;;;;;0.30;0.30;;;;;;;29.46;31.84;96968.88;5084017;28;20028;-31
2022/05/13 06:55:45;;;;;;;0.30;0.30;;;;;;;29.46;32.07;96963.59;5081668;28;20031;-32
2022/05/13 06:58:12;;;;;;;0.30;0.30;;;;;;;29.46;32.12;96958.31;5081409;28;20178;-29
2022/05/13 07:00:37;;;;;;;0.40;0.40;;;;;;;29.46;32.19;96963.59;5082801;28;20020;-32
2022/05/13 07:03:03;;;;;;;0.22;0.22;;;;;;;29.47;32.07;96960.00;5085037;28;20508;-30
2022/05/13 07:05:28;;;;;;;0.65;0.30;;;;;;;29.46;32.14;96966.22;5085305;28;20015;-32
2022/05/13 07:07:54;;;;;;;0.30;0.30;;;;;;;29.47;32.21;96959.13;5083234;28;20032;-30
2022/05/13 07:10:20;;;;;;;0.20;0.20;;;;;;;29.46;32.15;96963.59;5085154;28;20046;-32
2022/05/13 07:12:45;;;;;;;0.32;0.30;;;;;;;29.47;32.16;96964.41;5085015;28;20036;-30
2022/05/13 07:15:12;;;;;;;0.40;0.40;;;;;;;29.46;32.14;96963.59;5085621;28;20465;-29
2022/05/13 07:17:38;;;;;;;0.20;0.20;;;;;;;29.46;32.18;96974.16;5084012;28;20085;-35
2022/05/13 07:20:04;;;;;;;0.20;0.20;;;;;;;29.47;32.09;96975.84;5084637;28;20135;-32
2022/05/13 07:22:30;;;;;;;0.28;0.25;;;;;;;29.46;31.94;96979.41;5084749;28;20123;-29
2022/05/13 07:24:55;;;;;;;0.28;0.28;;;;;;;29.48;31.96;96972.22;5085183;28;20604;-29
2022/05/13 07:27:21;;;;;;;0.43;0.30;;;;;;;29.47;32.26;96975.84;5086748;28;20449;-30
2022/05/13 07:29:46;;;;;;;0.43;0.40;;;;;;;29.46;32.03;96979.41;5082920;28;20278;-31
2022/05/13 07:32:12;;;;;;;0.45;0.30;;;;;;;29.47;32.18;96986.38;5081930;28;20549;-31
2022/05/13 07:34:37;;;;;;;0.40;0.40;;;;;;;29.46;32.26;96984.69;5082586;28;20019;-31
2022/05/13 07:37:03;;;;;;;0.20;0.20;;;;;;;29.45;32.04;96988.28;5084329;28;20106;-32
2022/05/13 07:42:12;;;;;;;0.20;0.20;;;;;;;29.46;32.22;96989.13;5080430;28;20042;-30
2022/05/13 07:44:38;;;;;;;0.25;0.25;;;;;;;29.45;32.06;96993.53;5082695;28;20032;-31
2022/05/13 07:47:04;;;;;;;0.40;0.40;;;;;;;29.47;32.12;96996.94;5083801;28;20031;-28
2022/05/13 07:49:29;;;;;;;0.35;0.20;;;;;;;29.48;32.21;97000.41;5084818;28;20032;-31
2022/05/13 07:51:55;;;;;;;0.28;0.28;;;;;;;29.48;31.99;97003.91;5083245;28;20079;-30
2022/05/13 07:54:20;;;;;;;0.28;0.28;;;;;;;29.48;32.37;97010.97;5079348;28;20023;-30
2022/05/13 07:56:45;;;;;;;0.20;0.20;;;;;;;29.48;32.12;97008.34;5085357;28;20031;-28
2022/05/13 07:59:11;;;;;;;0.20;0.20;;;;;;;29.48;32.13;97003.06;5082467;28;20028;-31
2022/05/13 08:01:36;;;;;;;0.43;0.30;;;;;;;29.48;31.94;97005.69;5081984;28;20046;-31
2022/05/13 08:04:02;;;;;;;0.25;0.25;;;;;;;29.50;32.19;97002.97;5082111;28;20055;-31
2022/05/13 08:06:27;;;;;;;0.25;0.25;;;;;;;29.50;32.15;97005.59;5082046;28;20569;-30
2022/05/13 08:08:56;;;;;;;0.30;0.20;;;;;;;29.48;32.16;97003.91;5080390;28;20119;-31
2022/05/13 08:11:22;;;;;;;0.73;0.20;;;;;;;29.50;32.25;97016.16;5085338;28;20079;-30
2022/05/13 08:13:48;;;;;;;0.55;0.30;;;;;;;29.50;32.13;97026.72;5082822;28;20461;-30
2022/05/13 08:16:15;;;;;;;0.63;0.30;;;;;;;29.50;32.02;97034.66;5081194;28;20031;-31
2022/05/13 08:18:41;;;;;;;0.30;0.30;;;;;;;29.50;32.28;97037.28;5082930;28;20517;-30
2022/05/13 08:21:07;;;;;;;0.40;0.40;;;;;;;29.50;32.01;97026.72;5085380;28;20032;-31
2022/05/13 08:23:32;;;;;;;0.20;0.20;;;;;;;29.50;32.17;97027.59;5082982;28;20729;-29
2022/05/13 08:25:58;;;;;;;0.20;0.20;;;;;;;29.52;32.19;97032.81;5082923;28;20043;-31
2022/05/13 08:28:23;;;;;;;0.20;0.20;;;;;;;29.52;32.41;97030.16;5083304;28;20440;-31
2022/05/13 08:30:49;;;;;;;0.40;0.28;;;;;;;29.52;32.26;97040.72;5083304;28;20036;-29
2022/05/13 08:33:14;;;;;;;0.25;0.25;;;;;;;29.52;32.31;97030.16;5083451;28;20039;-31
2022/05/13 08:35:42;;;;;;;0.63;0.35;;;;;;;29.53;32.08;97037.13;5080586;28;20043;-30
2022/05/13 08:38:08;;;;;;;0.68;0.30;;;;;;;29.53;32.02;97034.50;5083127;28;20549;-33
2022/05/13 08:40:52;;;;;;;0.40;0.35;;;;;;;29.53;31.99;97031.84;5082757;28;20043;-30
2022/05/13 08:43:18;;;;;;;0.20;0.20;;;;;;;29.53;32.19;97037.13;5082506;28;20031;-30
2022/05/13 08:45:53;;;;;;;0.68;0.30;;;;;;;29.54;32.24;97044.09;5083981;28;20038;-32
2022/05/13 08:48:30;;;;;;;0.50;0.35;;;;;;;29.53;32.05;97039.78;5082821;28;20031;-29
2022/05/13 08:51:14;;;;;;;0.25;0.25;;;;;;;29.54;32.25;97038.81;5077353;28;20082;-29
2022/05/13 08:53:46;;;;;;;0.32;0.30;;;;;;;29.53;32.21;97031.84;5080804;28;20371;-29
2022/05/13 08:56:12;;;;;;;0.28;0.28;;;;;;;29.53;32.20;97031.84;5084099;28;20032;-30
2022/05/13 08:58:41;;;;;;;0.65;0.30;;;;;;;29.52;32.37;97030.16;5067025;28;20563;-30
2022/05/13 09:01:09;;;;;;;0.77;0.43;;;;;;;29.53;32.27;97031.84;5078314;28;20066;-32
2022/05/13 09:03:48;;;;;;;0.30;0.30;;;;;;;29.54;32.38;97038.81;5065367;28;20035;-30
2022/05/13 09:06:13;;;;;;;0.57;0.57;;;;;;;29.53;32.28;97029.22;5083089;28;20528;-27
2022/05/13 09:08:39;;;;;;;0.43;0.30;;;;;;;29.53;32.29;97032.72;5081332;28;20039;-30
2022/05/13 09:11:28;;;;;;;0.30;0.30;;;;;;;29.53;32.25;97031.84;5081739;28;20030;-31
2022/05/13 09:14:09;;;;;;;0.30;0.30;;;;;;;29.53;32.35;97037.13;5082503;28;20038;-29
2022/05/13 09:16:40;;;;;;;0.60;0.30;;;;;;;29.53;32.23;97039.78;5080922;28;20027;-31
2022/05/13 09:19:06;;;;;;;0.20;0.20;;;;;;;29.53;32.05;97042.41;5082187;28;20732;-31
2022/05/13 09:21:33;;;;;;;0.30;0.30;;;;;;;29.54;32.11;97044.09;5063245;28;20097;-28
2022/05/13 09:23:58;;;;;;;0.25;0.25;;;;;;;29.54;32.22;97038.81;5081845;27;20036;-30
2022/05/13 09:26:26;;;;;;;0.32;0.20;;;;;;;29.53;32.19;97038.00;5078777;28;20443;-28
2022/05/13 09:29:04;;;;;;;0.30;0.30;;;;;;;29.53;32.04;97042.41;5080405;28;20028;-29
2022/05/13 09:31:31;;;;;;;0.40;0.40;;;;;;;29.54;32.42;97033.53;5081103;28;20036;-29
2022/05/13 09:33:56;;;;;;;0.32;0.32;;;;;;;29.54;32.13;97033.53;5081649;28;20077;-29
2022/05/13 09:36:21;;;;;;;0.77;0.40;;;;;;;29.54;32.17;97028.25;5079680;28;20976;-30
2022/05/13 09:38:51;;;;;;;0.70;0.40;;;;;;;29.54;32.02;97036.19;5081469;28;20055;-29
2022/05/13 09:41:43;;;;;;;1.15;0.40;;;;;;;29.54;32.18;97044.09;5081474;28;20086;-30
2022/05/13 09:44:10;;;;;;;0.60;0.40;;;;;;;29.54;32.17;97036.19;5079608;28;20089;-30
2022/05/13 09:46:43;;;;;;;0.93;0.30;;;;;;;29.54;32.14;97033.53;5082625;28;20036;-29
2022/05/13 09:49:13;;;;;;;0.30;0.30;;;;;;;29.54;32.03;97033.53;5081834;28;20032;-29
2022/05/13 09:51:55;;;;;;;0.57;0.43;;;;;;;29.54;32.22;97028.25;5078174;28;20445;-29
2022/05/13 09:54:33;;;;;;;1.20;0.52;;;;;;;29.55;32.07;97035.22;5077035;28;20104;-30
2022/05/13 09:57:08;;;;;;;0.45;0.32;;;;;;;29.53;32.38;97032.72;5080960;28;20032;-29
2022/05/13 09:59:37;;;;;;;0.35;0.32;;;;;;;29.54;32.09;97033.53;5083338;28;20035;-33
2022/05/13 10:02:16;;;;;;;0.30;0.30;;;;;;;29.54;32.21;97028.25;5082808;28;20024;-30
2022/05/13 10:04:42;;;;;;;2.42;0.50;;;;;;;29.54;32.53;97030.91;5083178;28;20028;-30
2022/05/13 10:07:08;;;;;;;0.73;0.40;;;;;;;29.54;32.12;97030.91;5080359;28;20789;-33
2022/05/13 10:15:25;;;;;;;0.93;0.60;;;;;;;29.56;32.29;97034.28;5079595;28;20039;-32
2022/05/13 10:17:53;;;;;;;1.35;0.30;;;;;;;29.55;32.06;97035.22;5082853;27;20028;-29
2022/05/13 10:20:31;;;;;;;0.38;0.38;;;;;;;29.56;32.18;97034.28;5086283;28;20065;-31
2022/05/13 10:23:16;;;;;;;0.40;0.40;;;;;;;29.55;32.17;97040.50;5083401;28;20031;-30
2022/05/13 10:25:50;;;;;;;1.25;0.38;;;;;;;29.56;32.37;97042.22;5083496;28;20115;-29
2022/05/13 10:28:17;;;;;;;1.15;0.52;;;;;;;29.56;32.24;97034.28;5083624;28;20016;-29
2022/05/13 10:30:45;;;;;;;0.20;0.20;;;;;;;29.57;32.46;97033.34;5084960;28;20032;-30
2022/05/13 10:33:13;;;;;;;0.40;0.40;;;;;;;29.57;32.38;97039.47;5087482;28;20706;-31
2022/05/13 10:36:12;;;;;;;1.17;0.30;;;;;;;29.58;32.38;97040.31;5078699;28;20059;-29
2022/05/13 10:38:59;;;;;;;0.82;0.40;;;;;;;29.57;32.35;97036.84;5084378;28;20039;-31
2022/05/13 10:41:43;;;;;;;0.63;0.30;;;;;;;29.58;32.27;97045.59;5084676;28;20028;-37
2022/05/13 10:44:11;;;;;;;1.20;0.70;;;;;;;29.58;32.28;97051.72;5087361;28;20088;-31
2022/05/13 10:46:51;;;;;;;0.28;0.28;;;;;;;29.58;32.40;97046.44;5084585;28;20127;-30
2022/05/13 10:49:17;;;;;;;0.77;0.40;;;;;;;29.58;32.09;97054.38;5078283;28;20620;-32
2022/05/13 10:51:46;;;;;;;0.82;0.32;;;;;;;29.58;32.28;97049.09;5080696;28;20036;-33
2022/05/13 10:54:17;;;;;;;0.30;0.30;;;;;;;29.59;32.18;97036.72;5084739;28;20904;-30
2022/05/13 10:56:45;;;;;;;0.17;0.17;;;;;;;29.59;32.38;97036.72;5084492;28;20034;-29
2022/05/13 10:59:29;;;;;;;0.55;0.30;;;;;;;29.59;32.49;97036.72;5085101;28;20047;-33
2022/05/13 11:02:33;;;;;;;0.40;0.30;;;;;;;29.60;32.36;97038.44;5085429;28;20038;-30
2022/05/13 11:05:29;;;;;;;0.30;0.30;;;;;;;29.60;32.31;97038.44;5060616;28;20071;-32
2022/05/13 11:08:16;;;;;;;0.40;0.30;;;;;;;29.60;32.25;97033.16;5083641;28;20032;-29
2022/05/13 11:11:39;;;;;;;0.30;0.30;;;;;;;29.60;32.30;97036.63;5083862;28;20028;-34
2022/05/13 11:14:24;;;;;;;0.65;0.50;;;;;;;29.60;32.28;97041.91;5033100;28;20913;-30
2022/05/13 11:16:56;;;;;;;0.45;0.20;;;;;;;29.60;32.51;97038.44;5032950;28;20033;-29
2022/05/13 11:19:32;;;;;;;0.47;0.30;;;;;;;29.60;32.37;97038.44;5065006;28;20035;-31
2022/05/13 11:22:03;;;;;;;0.43;0.30;;;;;;;29.61;32.49;97034.84;5081939;28;20039;-29
2022/05/13 11:28:03;;;;;;;0.93;0.40;;;;;;;29.60;32.34;97033.16;5084152;28;20059;-29
2022/05/13 11:30:53;;;;;;;0.82;0.30;;;;;;;29.61;32.09;97032.19;5084810;28;20545;-33
2022/05/13 11:33:36;;;;;;;0.85;0.30;;;;;;;29.60;32.44;97033.16;5086276;28;20080;-30
2022/05/13 11:36:10;;;;;;;0.30;0.30;;;;;;;29.61;32.48;97026.91;5079654;28;20016;-31
2022/05/13 11:39:02;;;;;;;0.77;0.40;;;;;;;29.62;32.35;97033.03;5081401;28;20106;-31
2022/05/13 11:41:37;;;;;;;0.68;0.32;;;;;;;29.62;32.30;97025.97;5069449;28;20093;-31
2022/05/13 11:44:04;;;;;;;1.40;0.60;;;;;;;29.62;32.25;97025.09;5082442;28;20032;-31
2022/05/13 11:46:44;;;;;;;0.93;0.50;;;;;;;29.63;32.53;97025.00;5085805;28;20035;-29
2022/05/13 11:49:19;;;;;;;0.52;0.40;;;;;;;29.62;32.46;97019.81;5081771;28;20110;-31
2022/05/13 11:51:44;;;;;;;0.60;0.40;;;;;;;29.62;32.25;97025.09;5082163;28;20043;-32
2022/05/13 11:54:13;;;;;;;0.73;0.40;;;;;;;29.62;32.42;97015.41;5084104;28;20035;-29
2022/05/13 11:56:39;;;;;;;0.93;0.43;;;;;;;29.63;32.58;97024.19;5084578;28;20124;-35
2022/05/13 11:59:26;;;;;;;0.43;0.43;;;;;;;29.63;32.27;97021.53;5082563;28;22551;-29
2022/05/13 12:01:52;;;;;;;0.57;0.40;;;;;;;29.63;32.43;97022.38;5082724;28;20038;-30
2022/05/13 12:04:20;;;;;;;0.20;0.20;;;;;;;29.63;32.26;97022.38;5082390;28;20024;-29
2022/05/13 12:06:52;;;;;;;0.60;0.40;;;;;;;29.63;32.27;97016.25;5081130;28;20039;-29